KPVG

Hampton Roads Executive Airport

Norfolk, Virginia, USA
METAR KPVG 252156Z 20007KT 10SM BKN050 29/18 A2998 RMK AO2 SLP155 T02890178
Observed Flight Rules
May-25 @ 21:56 UTC (40 minutes ago) Visual Flight Rules
Wind Visibility Clouds
200° at 7 knots 10 miles
  • Broken at 5,000' AGL
Temperatures Readings
Current 29°C / 84°F
Dewpoint 18°C / 64°F
Humidity 51%
Altimeter 29.98" Hg
Pressure 1015.5 hPa
Elevation 7
METAR KPVG 252156Z 20007KT 10SM BKN050 29/18 A2998 RMK AO2 SLP155 T02890178
Observed Flight Rules
May-25 @ 21:56 UTC
(40 minutes ago)
VFR
Wind Visibility
200° at 7 knots 10 miles
Clouds
  • Broken at 5,000' AGL
Temperature Dewpoint
29°C / 84°F 18°C / 64°F
Humidity Altimeter Pressure
51% 29.98" Hg 1015.5 hPa